Time;durP1;ratioP1;P1;durP2;ratioP2;P2;SDS_P1;SDS_P2;PMS_P1;PMS_P2;Temp;Humidity;BMP_temperature;BMP_pressure;BME280_temperature;BME280_humidity;BME280_pressure;Samples;Min_cycle;Max_cycle;Signal;HPM_P1;HPM_P2
2024/03/01 00:01:40;;;;;;;0.30;0.22;;;;;;;;;;5003383;28;20041;-81
2024/03/01 00:04:06;;;;;;;0.20;0.00;;;;;;;;;;4980971;28;20037;-80
2024/03/01 00:06:33;;;;;;;0.20;0.10;;;;;;;;;;4983992;28;20041;-79
2024/03/01 00:08:59;;;;;;;0.20;0.10;;;;;;;;;;5005947;28;20170;-80
2024/03/01 00:11:25;;;;;;;0.20;0.00;;;;;;;;;;5002998;28;20584;-82
2024/03/01 00:13:51;;;;;;;0.20;0.10;;;;;;;;;;5006429;28;20041;-80
2024/03/01 00:16:17;;;;;;;0.20;0.00;;;;;;;;;;5001017;28;20513;-80
2024/03/01 00:18:43;;;;;;;0.20;0.05;;;;;;;;;;4984038;28;20029;-80
2024/03/01 00:21:15;;;;;;;0.20;0.10;;;;;;;;;;5002016;28;20523;-78
2024/03/01 00:23:42;;;;;;;0.20;0.10;;;;;;;;;;5003039;28;20041;-81
2024/03/01 00:26:08;;;;;;;0.20;0.15;;;;;;;;;;5006990;28;20033;-80
2024/03/01 00:28:35;;;;;;;1.45;0.20;;;;;;;;;;5003924;28;20046;-77
2024/03/01 00:31:01;;;;;;;0.20;0.00;;;;;;;;;;5002943;28;20394;-79
2024/03/01 00:33:27;;;;;;;0.20;0.08;;;;;;;;;;5001416;28;20515;-84
2024/03/01 00:35:54;;;;;;;0.20;0.10;;;;;;;;;;5000672;28;20585;-83
2024/03/01 00:38:20;;;;;;;0.20;0.10;;;;;;;;;;4997946;28;20059;-79
2024/03/01 00:40:46;;;;;;;0.20;0.05;;;;;;;;;;5004795;28;20030;-81
2024/03/01 00:43:12;;;;;;;0.20;0.10;;;;;;;;;;5004386;28;20120;-80
2024/03/01 00:45:39;;;;;;;0.20;0.13;;;;;;;;;;5000740;28;20513;-80
2024/03/01 00:48:12;;;;;;;0.20;0.10;;;;;;;;;;4998761;28;20046;-79
2024/03/01 00:50:38;;;;;;;0.20;0.10;;;;;;;;;;4999080;28;20053;-80
2024/03/01 00:53:05;;;;;;;0.20;0.10;;;;;;;;;;5003006;28;20124;-81
2024/03/01 00:55:31;;;;;;;0.20;0.10;;;;;;;;;;4987444;28;20048;-81
2024/03/01 00:57:57;;;;;;;0.20;0.10;;;;;;;;;;5000958;28;20064;-79
2024/03/01 01:00:23;;;;;;;0.20;0.10;;;;;;;;;;4984391;28;20041;-81
2024/03/01 01:02:49;;;;;;;0.20;0.10;;;;;;;;;;5003974;28;20045;-80
2024/03/01 01:05:15;;;;;;;0.20;0.10;;;;;;;;;;5027274;28;20045;-80
2024/03/01 01:07:42;;;;;;;0.20;0.10;;;;;;;;;;4998104;28;20033;-81
2024/03/01 01:10:09;;;;;;;0.20;0.05;;;;;;;;;;4990398;28;20041;-81
2024/03/01 01:12:35;;;;;;;0.20;0.10;;;;;;;;;;5021739;28;20046;-81
2024/03/01 01:15:01;;;;;;;0.20;0.00;;;;;;;;;;4987842;28;20038;-84
2024/03/01 01:17:27;;;;;;;0.20;0.10;;;;;;;;;;5000470;28;20081;-80
2024/03/01 01:19:57;;;;;;;0.55;0.43;;;;;;;;;;5001066;28;20045;-80
2024/03/01 01:22:23;;;;;;;0.20;0.00;;;;;;;;;;4984232;28;20037;-82
2024/03/01 01:24:49;;;;;;;0.47;0.43;;;;;;;;;;5001560;28;20049;-79
2024/03/01 01:27:15;;;;;;;0.20;0.10;;;;;;;;;;4980631;28;20037;-82
2024/03/01 01:29:42;;;;;;;0.57;0.57;;;;;;;;;;5003844;28;20087;-81
2024/03/01 01:32:08;;;;;;;0.35;0.10;;;;;;;;;;5001335;28;20041;-80
2024/03/01 01:34:34;;;;;;;0.60;0.08;;;;;;;;;;5019370;28;20666;-81
2024/03/01 01:37:00;;;;;;;0.20;0.20;;;;;;;;;;5006976;28;20417;-81
2024/03/01 01:39:26;;;;;;;0.20;0.00;;;;;;;;;;5005891;28;20120;-81
2024/03/01 01:41:52;;;;;;;0.20;0.10;;;;;;;;;;5003305;28;20069;-81
2024/03/01 01:44:18;;;;;;;0.20;0.00;;;;;;;;;;5004821;28;20041;-80
2024/03/01 01:46:48;;;;;;;0.20;0.00;;;;;;;;;;4999516;28;20042;-81
2024/03/01 01:49:14;;;;;;;0.20;0.10;;;;;;;;;;4986893;28;20524;-81
2024/03/01 01:51:41;;;;;;;0.20;0.00;;;;;;;;;;5003353;28;20045;-79
2024/03/01 01:54:07;;;;;;;0.20;0.00;;;;;;;;;;4986119;28;20148;-79
2024/03/01 01:56:34;;;;;;;0.47;0.40;;;;;;;;;;5005106;28;20930;-79
2024/03/01 01:59:00;;;;;;;0.32;0.20;;;;;;;;;;5004409;28;20427;-80
2024/03/01 02:01:26;;;;;;;0.20;0.10;;;;;;;;;;5005069;28;20044;-80
2024/03/01 02:03:52;;;;;;;0.20;0.10;;;;;;;;;;5001360;28;20041;-82
2024/03/01 02:06:21;;;;;;;0.65;0.17;;;;;;;;;;5000337;28;20045;-82
2024/03/01 02:08:50;;;;;;;0.20;0.00;;;;;;;;;;5000078;28;20045;-81
2024/03/01 02:11:16;;;;;;;0.20;0.00;;;;;;;;;;4984333;28;20150;-81
2024/03/01 02:13:43;;;;;;;0.20;0.10;;;;;;;;;;4984687;28;20133;-81
2024/03/01 02:16:09;;;;;;;0.20;0.10;;;;;;;;;;4998400;28;20053;-80
2024/03/01 02:18:35;;;;;;;0.20;0.10;;;;;;;;;;4985469;28;20045;-80
2024/03/01 02:21:03;;;;;;;0.20;0.05;;;;;;;;;;5001230;28;20041;-81
2024/03/01 02:23:29;;;;;;;0.20;0.00;;;;;;;;;;5000747;28;20053;-80
2024/03/01 02:25:55;;;;;;;0.30;0.20;;;;;;;;;;4989559;28;20049;-80
2024/03/01 02:28:21;;;;;;;0.20;0.00;;;;;;;;;;5001580;28;20109;-80
2024/03/01 02:30:48;;;;;;;0.20;0.03;;;;;;;;;;5001211;28;20084;-82
2024/03/01 02:33:14;;;;;;;0.20;0.20;;;;;;;;;;5009579;28;20042;-80
2024/03/01 02:35:40;;;;;;;0.20;0.10;;;;;;;;;;4998973;28;20041;-80
2024/03/01 02:38:06;;;;;;;0.20;0.00;;;;;;;;;;5005214;28;20041;-83
2024/03/01 02:40:32;;;;;;;0.20;0.10;;;;;;;;;;5002669;28;20029;-80
2024/03/01 02:42:58;;;;;;;0.35;0.25;;;;;;;;;;5001873;28;20041;-80
2024/03/01 02:45:24;;;;;;;0.20;0.10;;;;;;;;;;5001999;28;23151;-81
2024/03/01 02:47:50;;;;;;;0.20;0.00;;;;;;;;;;5019898;28;20041;-79
2024/03/01 02:50:16;;;;;;;0.20;0.00;;;;;;;;;;5001623;28;20497;-78
2024/03/01 02:52:42;;;;;;;0.20;0.00;;;;;;;;;;5002450;28;20077;-80
2024/03/01 02:55:08;;;;;;;0.20;0.10;;;;;;;;;;5015403;28;20152;-81
2024/03/01 02:57:34;;;;;;;0.20;0.00;;;;;;;;;;5004253;28;20033;-78
2024/03/01 03:00:00;;;;;;;0.20;0.10;;;;;;;;;;4987811;28;20668;-84
2024/03/01 03:02:26;;;;;;;0.25;0.05;;;;;;;;;;4995727;28;20576;-80
2024/03/01 03:04:53;;;;;;;0.20;0.10;;;;;;;;;;5015054;28;20082;-79
2024/03/01 03:07:20;;;;;;;0.25;0.05;;;;;;;;;;4984434;28;20041;-81
2024/03/01 03:09:46;;;;;;;0.85;0.85;;;;;;;;;;5003343;28;20777;-80
2024/03/01 03:12:12;;;;;;;0.28;0.25;;;;;;;;;;5019833;28;20065;-82
2024/03/01 03:14:38;;;;;;;0.20;0.10;;;;;;;;;;5000989;28;20041;-83
2024/03/01 03:17:05;;;;;;;0.52;0.28;;;;;;;;;;5002200;28;20053;-80
2024/03/01 03:19:31;;;;;;;0.20;0.10;;;;;;;;;;4998723;28;20038;-79
2024/03/01 03:21:57;;;;;;;0.20;0.13;;;;;;;;;;5003951;28;20034;-82
2024/03/01 03:24:23;;;;;;;0.20;0.03;;;;;;;;;;5007014;28;20048;-80
2024/03/01 03:26:49;;;;;;;0.20;0.10;;;;;;;;;;5003080;28;20037;-81
2024/03/01 03:29:15;;;;;;;0.20;0.10;;;;;;;;;;4983431;28;20038;-80
2024/03/01 03:31:48;;;;;;;0.20;0.10;;;;;;;;;;5099219;27;20400;-80
2024/03/01 03:34:14;;;;;;;0.50;0.47;;;;;;;;;;5048652;28;20156;-82
2024/03/01 03:36:40;;;;;;;0.20;0.10;;;;;;;;;;5072090;22;20841;-82
2024/03/01 03:39:06;;;;;;;0.20;0.00;;;;;;;;;;5035202;28;20048;-82
2024/03/01 03:41:33;;;;;;;0.20;0.20;;;;;;;;;;5038916;28;20047;-81
2024/03/01 03:44:00;;;;;;;0.20;0.10;;;;;;;;;;5052374;28;20127;-82
2024/03/01 03:46:26;;;;;;;0.20;0.10;;;;;;;;;;5060276;28;20045;-82
2024/03/01 03:48:52;;;;;;;0.20;0.05;;;;;;;;;;5070589;28;20036;-82
2024/03/01 03:51:27;;;;;;;0.88;0.30;;;;;;;;;;5056872;28;20035;-81
2024/03/01 03:53:54;;;;;;;0.25;0.20;;;;;;;;;;5053956;28;20368;-80
2024/03/01 03:56:20;;;;;;;0.20;0.00;;;;;;;;;;5055240;28;20039;-81
2024/03/01 03:58:47;;;;;;;0.20;0.00;;;;;;;;;;5050113;28;20040;-80
2024/03/01 04:01:13;;;;;;;0.20;0.10;;;;;;;;;;5067424;28;20041;-80
2024/03/01 04:03:39;;;;;;;0.40;0.15;;;;;;;;;;5057978;28;20617;-81
2024/03/01 04:06:07;;;;;;;0.20;0.10;;;;;;;;;;5067714;28;20044;-81
2024/03/01 04:08:33;;;;;;;0.20;0.20;;;;;;;;;;5057969;28;20052;-81
2024/03/01 04:11:05;;;;;;;0.20;0.10;;;;;;;;;;5054349;28;20049;-81
2024/03/01 04:13:31;;;;;;;0.20;0.10;;;;;;;;;;5056133;28;20531;-80
2024/03/01 04:15:57;;;;;;;0.20;0.10;;;;;;;;;;5051553;28;20032;-81
2024/03/01 04:18:27;;;;;;;0.20;0.10;;;;;;;;;;5070770;28;20036;-81
2024/03/01 04:20:54;;;;;;;0.20;0.10;;;;;;;;;;5073036;28;20044;-81
2024/03/01 04:23:20;;;;;;;0.20;0.10;;;;;;;;;;5083081;28;20040;-80
2024/03/01 04:25:51;;;;;;;0.20;0.10;;;;;;;;;;5057952;28;20452;-81
2024/03/01 04:28:17;;;;;;;3.95;0.77;;;;;;;;;;5062829;28;20417;-80
2024/03/01 04:30:43;;;;;;;0.20;0.00;;;;;;;;;;5062866;28;20139;-80
2024/03/01 04:33:09;;;;;;;0.20;0.20;;;;;;;;;;5058867;28;20123;-81
2024/03/01 04:35:36;;;;;;;0.20;0.10;;;;;;;;;;5080987;28;20040;-82
2024/03/01 04:38:02;;;;;;;0.20;0.00;;;;;;;;;;5079957;28;20036;-80
2024/03/01 04:40:28;;;;;;;0.20;0.10;;;;;;;;;;5079398;28;20040;-81
2024/03/01 04:42:54;;;;;;;0.20;0.20;;;;;;;;;;5046933;28;20072;-80
2024/03/01 04:45:20;;;;;;;0.20;0.00;;;;;;;;;;5048217;28;20136;-81
2024/03/01 04:47:46;;;;;;;0.32;0.30;;;;;;;;;;5045210;28;20563;-80
2024/03/01 04:50:12;;;;;;;0.20;0.00;;;;;;;;;;5046063;28;20037;-81
2024/03/01 04:52:38;;;;;;;0.20;0.00;;;;;;;;;;5060400;28;20044;-80
2024/03/01 04:55:05;;;;;;;0.57;0.57;;;;;;;;;;5066770;28;20039;-81
2024/03/01 04:57:32;;;;;;;0.20;0.10;;;;;;;;;;5048756;28;20037;-81
2024/03/01 04:59:58;;;;;;;0.20;0.10;;;;;;;;;;5039171;28;20037;-81
2024/03/01 05:02:24;;;;;;;0.20;0.10;;;;;;;;;;5042343;28;20048;-81
2024/03/01 05:04:50;;;;;;;2.55;0.47;;;;;;;;;;5066043;28;20048;-80
2024/03/01 05:07:16;;;;;;;0.20;0.10;;;;;;;;;;5061046;28;20389;-81
2024/03/01 05:09:45;;;;;;;0.20;0.10;;;;;;;;;;5042349;28;20036;-81
2024/03/01 05:12:13;;;;;;;0.20;0.10;;;;;;;;;;5042539;28;20153;-82
2024/03/01 05:14:42;;;;;;;0.20;0.10;;;;;;;;;;5061791;28;20074;-82
2024/03/01 05:17:08;;;;;;;0.20;0.00;;;;;;;;;;5056564;28;20041;-79
2024/03/01 05:19:38;;;;;;;0.20;0.10;;;;;;;;;;5047656;28;20029;-80
2024/03/01 05:22:06;;;;;;;0.30;0.20;;;;;;;;;;5042633;28;20036;-80
2024/03/01 05:24:32;;;;;;;0.32;0.10;;;;;;;;;;5045277;28;20032;-81
2024/03/01 05:26:59;;;;;;;0.20;0.10;;;;;;;;;;5041837;28;20047;-81
2024/03/01 05:29:26;;;;;;;0.30;0.15;;;;;;;;;;5053742;28;20044;-80
2024/03/01 05:31:52;;;;;;;0.80;0.68;;;;;;;;;;5041305;28;20048;-81
2024/03/01 05:34:18;;;;;;;0.20;0.10;;;;;;;;;;5060673;28;20120;-81
2024/03/01 05:36:44;;;;;;;0.20;0.10;;;;;;;;;;5048278;28;20123;-81
2024/03/01 05:39:16;;;;;;;0.20;0.03;;;;;;;;;;5063395;28;20131;-80
2024/03/01 05:41:43;;;;;;;0.20;0.10;;;;;;;;;;5051762;28;20542;-80
2024/03/01 05:44:09;;;;;;;0.20;0.10;;;;;;;;;;5042789;28;20431;-81
2024/03/01 05:46:35;;;;;;;0.20;0.10;;;;;;;;;;5042054;28;20044;-81
2024/03/01 05:49:01;;;;;;;0.20;0.10;;;;;;;;;;5046436;28;20039;-78
2024/03/01 05:51:27;;;;;;;0.20;0.10;;;;;;;;;;5059020;28;20041;-80
2024/03/01 05:53:53;;;;;;;0.30;0.20;;;;;;;;;;5040689;28;20047;-80
2024/03/01 05:56:19;;;;;;;0.20;0.10;;;;;;;;;;5058477;28;20311;-81
2024/03/01 05:58:46;;;;;;;0.20;0.10;;;;;;;;;;5042275;28;20924;-80
2024/03/01 06:01:12;;;;;;;0.20;0.10;;;;;;;;;;5037408;28;20045;-80
2024/03/01 06:03:38;;;;;;;0.20;0.08;;;;;;;;;;5054377;28;20041;-80
2024/03/01 06:06:07;;;;;;;0.30;0.20;;;;;;;;;;5034853;28;20044;-81
2024/03/01 06:08:33;;;;;;;0.82;0.43;;;;;;;;;;5035983;28;20046;-81
2024/03/01 06:10:59;;;;;;;0.20;0.10;;;;;;;;;;5039271;28;20294;-80
2024/03/01 06:13:25;;;;;;;0.30;0.30;;;;;;;;;;5043369;28;20761;-81
2024/03/01 06:15:51;;;;;;;0.20;0.10;;;;;;;;;;5038110;28;20055;-82
2024/03/01 06:18:17;;;;;;;0.75;0.45;;;;;;;;;;5042292;28;20032;-81
2024/03/01 06:20:43;;;;;;;0.50;0.30;;;;;;;;;;5055024;28;20052;-83
2024/03/01 06:23:09;;;;;;;0.20;0.10;;;;;;;;;;5038275;28;20433;-82
2024/03/01 06:25:35;;;;;;;0.20;0.10;;;;;;;;;;5043300;28;20051;-82
2024/03/01 06:28:01;;;;;;;0.20;0.10;;;;;;;;;;5032922;28;20060;-81
2024/03/01 06:30:27;;;;;;;0.20;0.08;;;;;;;;;;5032686;28;20036;-82
2024/03/01 06:32:54;;;;;;;0.20;0.00;;;;;;;;;;5046961;28;20044;-81
2024/03/01 06:35:20;;;;;;;0.30;0.30;;;;;;;;;;5041041;28;20139;-81
2024/03/01 06:37:46;;;;;;;0.20;0.10;;;;;;;;;;5058127;28;20119;-77
2024/03/01 06:40:12;;;;;;;0.20;0.00;;;;;;;;;;5041850;28;20040;-81
2024/03/01 06:42:39;;;;;;;0.20;0.10;;;;;;;;;;5062428;28;21126;-81
2024/03/01 06:45:06;;;;;;;0.20;0.10;;;;;;;;;;5044024;28;20043;-82
2024/03/01 06:47:33;;;;;;;0.20;0.03;;;;;;;;;;5060837;28;20056;-82
2024/03/01 06:50:00;;;;;;;0.20;0.10;;;;;;;;;;5047593;28;21534;-80
2024/03/01 06:52:26;;;;;;;0.20;0.20;;;;;;;;;;5042971;28;20046;-81
2024/03/01 06:54:52;;;;;;;0.22;0.20;;;;;;;;;;5047424;28;20123;-82
2024/03/01 06:57:18;;;;;;;0.20;0.17;;;;;;;;;;5042356;28;20378;-79
2024/03/01 06:59:45;;;;;;;0.90;0.30;;;;;;;;;;5045350;28;20048;-80
2024/03/01 07:02:11;;;;;;;0.20;0.10;;;;;;;;;;5045264;28;20029;-80
2024/03/01 07:04:37;;;;;;;0.20;0.10;;;;;;;;;;5061724;28;20386;-81
2024/03/01 07:07:03;;;;;;;0.20;0.10;;;;;;;;;;5064132;28;20036;-81
2024/03/01 07:09:32;;;;;;;0.20;0.10;;;;;;;;;;5065561;28;20028;-81
2024/03/01 07:12:01;;;;;;;0.20;0.10;;;;;;;;;;5045403;28;20334;-81
2024/03/01 07:14:27;;;;;;;0.20;0.10;;;;;;;;;;5044976;28;20033;-83
2024/03/01 07:16:53;;;;;;;0.95;0.57;;;;;;;;;;5065780;28;20040;-82
2024/03/01 07:19:19;;;;;;;0.40;0.40;;;;;;;;;;5062707;28;20037;-83
2024/03/01 07:21:45;;;;;;;0.20;0.20;;;;;;;;;;5061822;28;20051;-83
2024/03/01 07:24:11;;;;;;;0.60;0.40;;;;;;;;;;5063745;28;20134;-83
2024/03/01 07:26:37;;;;;;;0.22;0.13;;;;;;;;;;5065254;28;20067;-86
2024/03/01 07:29:03;;;;;;;0.20;0.08;;;;;;;;;;5065179;28;20040;-83
2024/03/01 07:31:34;;;;;;;0.20;0.05;;;;;;;;;;5067690;28;20052;-85
2024/03/01 07:34:03;;;;;;;0.20;0.20;;;;;;;;;;5059906;28;20049;-87
2024/03/01 07:36:29;;;;;;;0.20;0.10;;;;;;;;;;5057624;28;20098;-84
2024/03/01 07:38:55;;;;;;;0.20;0.10;;;;;;;;;;5066862;28;20117;-84
2024/03/01 07:41:21;;;;;;;0.20;0.03;;;;;;;;;;5046913;28;20040;-84
2024/03/01 07:43:59;;;;;;;0.20;0.08;;;;;;;;;;5061116;28;20193;-85
2024/03/01 07:46:32;;;;;;;0.20;0.00;;;;;;;;;;5046496;28;20399;-87
2024/03/01 07:48:58;;;;;;;0.20;0.10;;;;;;;;;;5060187;28;20127;-85
2024/03/01 07:51:24;;;;;;;0.20;0.00;;;;;;;;;;5043880;28;20036;-84
2024/03/01 07:53:50;;;;;;;0.20;0.10;;;;;;;;;;5046151;28;20045;-85
2024/03/01 07:56:23;;;;;;;0.20;0.10;;;;;;;;;;5045916;28;20037;-86
2024/03/01 07:58:54;;;;;;;0.20;0.10;;;;;;;;;;5065824;28;20044;-85
2024/03/01 08:01:20;;;;;;;0.20;0.00;;;;;;;;;;5070431;28;20053;-85
2024/03/01 08:03:47;;;;;;;0.20;0.00;;;;;;;;;;5064533;28;20060;-83
2024/03/01 08:06:13;;;;;;;0.20;0.10;;;;;;;;;;5050883;28;20051;-85
2024/03/01 08:08:44;;;;;;;0.20;0.00;;;;;;;;;;5062960;28;20056;-86
2024/03/01 08:11:10;;;;;;;0.20;0.10;;;;;;;;;;5049289;28;20416;-84
2024/03/01 08:13:36;;;;;;;0.20;0.10;;;;;;;;;;5077762;28;20041;-84
2024/03/01 08:16:08;;;;;;;0.20;0.00;;;;;;;;;;5062582;28;20400;-84
2024/03/01 08:18:37;;;;;;;0.20;0.10;;;;;;;;;;5048098;28;20071;-87
2024/03/01 08:21:05;;;;;;;0.20;0.10;;;;;;;;;;5046787;28;20849;-86
2024/03/01 08:23:38;;;;;;;0.20;0.00;;;;;;;;;;5046815;28;20041;-84
2024/03/01 08:26:05;;;;;;;0.20;0.00;;;;;;;;;;5048289;28;23538;-85
2024/03/01 08:28:31;;;;;;;0.20;0.03;;;;;;;;;;5067547;28;20090;-83
2024/03/01 08:31:03;;;;;;;0.20;0.00;;;;;;;;;;5052161;28;20416;-84
2024/03/01 08:33:30;;;;;;;0.20;0.10;;;;;;;;;;5043811;28;20317;-84
2024/03/01 08:35:56;;;;;;;0.20;0.00;;;;;;;;;;5065216;28;20044;-84
2024/03/01 08:38:41;;;;;;;0.20;0.00;;;;;;;;;;5063499;28;20522;-84
2024/03/01 08:41:08;;;;;;;0.20;0.10;;;;;;;;;;5050619;28;20161;-85
2024/03/01 08:43:40;;;;;;;0.20;0.10;;;;;;;;;;5049005;28;20044;-84
2024/03/01 08:46:17;;;;;;;0.20;0.10;;;;;;;;;;5066122;28;20040;-82
2024/03/01 08:48:43;;;;;;;0.20;0.10;;;;;;;;;;5067814;28;20162;-83
2024/03/01 08:51:10;;;;;;;0.20;0.05;;;;;;;;;;5068824;28;20500;-84
2024/03/01 08:53:48;;;;;;;0.20;0.00;;;;;;;;;;5069807;28;20040;-83
2024/03/01 08:56:20;;;;;;;0.20;0.00;;;;;;;;;;5047314;28;20499;-82
2024/03/01 08:58:46;;;;;;;0.20;0.10;;;;;;;;;;5048088;28;20036;-83
2024/03/01 09:01:31;;;;;;;0.20;0.00;;;;;;;;;;5067924;28;20389;-82
2024/03/01 09:04:24;;;;;;;0.20;0.10;;;;;;;;;;5064160;28;20065;-82
2024/03/01 09:07:07;;;;;;;0.20;0.00;;;;;;;;;;5065244;28;20053;-84
2024/03/01 09:09:34;;;;;;;0.20;0.10;;;;;;;;;;5067967;28;20123;-83
2024/03/01 09:12:00;;;;;;;0.20;0.00;;;;;;;;;;5071608;28;20075;-83
2024/03/01 09:14:28;;;;;;;0.20;0.00;;;;;;;;;;5066781;28;20074;-83
2024/03/01 09:16:54;;;;;;;0.20;0.00;;;;;;;;;;5050692;28;20041;-82
2024/03/01 09:19:23;;;;;;;0.20;0.10;;;;;;;;;;5063290;28;20036;-84
2024/03/01 09:21:49;;;;;;;0.20;0.10;;;;;;;;;;5050876;28;20060;-82
2024/03/01 09:24:17;;;;;;;0.20;0.10;;;;;;;;;;5058120;28;20103;-84
2024/03/01 09:26:43;;;;;;;0.20;0.08;;;;;;;;;;5049059;28;20051;-82
2024/03/01 09:29:17;;;;;;;0.20;0.10;;;;;;;;;;5052250;28;20044;-83
2024/03/01 09:31:43;;;;;;;0.20;0.00;;;;;;;;;;5050439;28;20535;-83
2024/03/01 09:34:10;;;;;;;0.20;0.10;;;;;;;;;;5066293;28;20041;-82
2024/03/01 09:36:36;;;;;;;0.20;0.10;;;;;;;;;;5078815;22;20194;-82
2024/03/01 09:39:08;;;;;;;0.20;0.00;;;;;;;;;;5009740;28;20037;-80
2024/03/01 09:41:44;;;;;;;0.20;0.05;;;;;;;;;;5039994;28;20094;-80
2024/03/01 09:44:16;;;;;;;0.20;0.10;;;;;;;;;;5027841;28;20048;-82
2024/03/01 09:47:01;;;;;;;0.20;0.00;;;;;;;;;;5026707;28;20322;-81
2024/03/01 09:49:49;;;;;;;0.20;0.05;;;;;;;;;;5028179;28;20105;-80
2024/03/01 09:52:34;;;;;;;0.20;0.00;;;;;;;;;;5040226;28;20040;-79
2024/03/01 09:55:19;;;;;;;0.20;0.10;;;;;;;;;;5030755;28;20068;-80
2024/03/01 09:57:52;;;;;;;0.20;0.00;;;;;;;;;;5046031;28;20117;-79
2024/03/01 10:00:22;;;;;;;0.20;0.10;;;;;;;;;;5044704;28;20052;-79
2024/03/01 10:03:00;;;;;;;0.20;0.00;;;;;;;;;;5031684;28;20040;-79
2024/03/01 10:05:45;;;;;;;0.20;0.10;;;;;;;;;;5026942;28;20086;-80
2024/03/01 10:08:23;;;;;;;0.20;0.10;;;;;;;;;;5039345;28;20040;-78
2024/03/01 10:10:49;;;;;;;1.20;0.35;;;;;;;;;;5033475;28;20103;-80
2024/03/01 10:13:29;;;;;;;0.20;0.00;;;;;;;;;;5038867;28;20040;-80
2024/03/01 10:16:09;;;;;;;0.20;0.00;;;;;;;;;;5042527;28;20116;-80
2024/03/01 10:18:58;;;;;;;0.20;0.00;;;;;;;;;;5048051;28;20082;-82
2024/03/01 10:21:27;;;;;;;0.20;0.00;;;;;;;;;;5027740;28;20037;-80
2024/03/01 10:24:17;;;;;;;0.20;0.10;;;;;;;;;;5044964;28;20044;-80
2024/03/01 10:26:45;;;;;;;0.20;0.00;;;;;;;;;;5034395;28;20260;-80
2024/03/01 10:29:29;;;;;;;0.20;0.10;;;;;;;;;;5046192;28;20064;-79
2024/03/01 10:32:04;;;;;;;0.20;0.10;;;;;;;;;;5036091;28;20064;-80
2024/03/01 10:34:37;;;;;;;0.20;0.00;;;;;;;;;;5048489;28;20037;-80
2024/03/01 10:37:13;;;;;;;0.20;0.10;;;;;;;;;;5046900;28;20037;-81
2024/03/01 10:39:45;;;;;;;0.20;0.10;;;;;;;;;;5037836;28;20052;-81
2024/03/01 10:42:16;;;;;;;0.20;0.03;;;;;;;;;;5034020;28;20104;-80
2024/03/01 10:45:12;;;;;;;0.20;0.00;;;;;;;;;;5045934;28;20029;-81
2024/03/01 10:47:39;;;;;;;0.20;0.00;;;;;;;;;;5023912;28;20045;-81
2024/03/01 10:50:15;;;;;;;0.20;0.00;;;;;;;;;;5034536;28;20048;-80
2024/03/01 10:52:47;;;;;;;0.20;0.10;;;;;;;;;;5030158;28;20037;-80
2024/03/01 10:55:19;;;;;;;0.20;0.10;;;;;;;;;;5032893;28;20619;-80
2024/03/01 10:57:54;;;;;;;0.30;0.20;;;;;;;;;;5041600;28;20413;-81
2024/03/01 11:00:21;;;;;;;0.20;0.05;;;;;;;;;;5041262;28;20038;-80
2024/03/01 11:02:51;;;;;;;0.20;0.10;;;;;;;;;;5034705;28;20064;-80
2024/03/01 11:05:24;;;;;;;0.20;0.10;;;;;;;;;;5037784;28;20040;-80
2024/03/01 11:07:55;;;;;;;0.20;0.00;;;;;;;;;;5043700;28;20037;-81
2024/03/01 11:10:27;;;;;;;0.20;0.00;;;;;;;;;;5048880;28;20032;-82
2024/03/01 11:12:55;;;;;;;0.20;0.10;;;;;;;;;;5033341;28;20039;-81
2024/03/01 11:15:24;;;;;;;0.20;0.00;;;;;;;;;;5045582;28;20053;-81
2024/03/01 11:17:50;;;;;;;0.20;0.10;;;;;;;;;;5048755;28;20237;-81
2024/03/01 11:20:26;;;;;;;0.20;0.00;;;;;;;;;;5042967;28;22082;-79
2024/03/01 11:23:12;;;;;;;0.20;0.00;;;;;;;;;;5045368;28;21948;-78
2024/03/01 11:25:50;;;;;;;0.20;0.00;;;;;;;;;;5031376;28;20456;-81
2024/03/01 11:28:23;;;;;;;0.20;0.10;;;;;;;;;;5042391;28;20048;-82
2024/03/01 11:30:49;;;;;;;;;;;;;;;;;;5031406;28;20033;-81
2024/03/01 11:33:15;;;;;;;0.28;0.17;;;;;;;;;;5037810;28;19926;-82
2024/03/01 11:35:56;;;;;;;0.20;0.00;;;;;;;;;;5025699;28;20198;-83
2024/03/01 11:38:29;;;;;;;0.20;0.00;;;;;;;;;;5033482;28;20033;-81
2024/03/01 11:40:58;;;;;;;0.20;0.10;;;;;;;;;;5033305;28;20052;-82
2024/03/01 11:43:40;;;;;;;0.20;0.00;;;;;;;;;;5032268;28;20073;-81
2024/03/01 11:46:13;;;;;;;0.20;0.10;;;;;;;;;;5027147;28;20037;-81
2024/03/01 11:49:11;;;;;;;0.20;0.10;;;;;;;;;;5027842;28;20055;-80
2024/03/01 11:51:41;;;;;;;0.20;0.10;;;;;;;;;;4989431;28;20049;-83
2024/03/01 11:54:22;;;;;;;0.20;0.00;;;;;;;;;;5037885;28;20037;-82
2024/03/01 11:56:51;;;;;;;0.20;0.00;;;;;;;;;;5035969;28;20047;-81
2024/03/01 11:59:31;;;;;;;0.20;0.10;;;;;;;;;;5040274;28;20061;-83
2024/03/01 12:02:06;;;;;;;0.20;0.03;;;;;;;;;;5047616;28;20037;-80
2024/03/01 12:04:36;;;;;;;0.20;0.10;;;;;;;;;;5054804;28;20048;-83
2024/03/01 12:07:09;;;;;;;0.20;0.00;;;;;;;;;;5045960;28;20049;-81
2024/03/01 12:09:54;;;;;;;0.20;0.00;;;;;;;;;;5030074;28;20242;-82
2024/03/01 12:12:24;;;;;;;0.20;0.08;;;;;;;;;;5023938;28;20067;-81
2024/03/01 12:14:56;;;;;;;0.20;0.10;;;;;;;;;;5037773;28;20044;-81
2024/03/01 12:17:26;;;;;;;0.20;0.10;;;;;;;;;;5037317;28;20029;-81
2024/03/01 12:19:56;;;;;;;0.20;0.10;;;;;;;;;;5033265;28;20056;-81
2024/03/01 12:22:28;;;;;;;0.20;0.10;;;;;;;;;;5036194;28;20045;-87
2024/03/01 12:24:55;;;;;;;0.20;0.10;;;;;;;;;;5044189;28;20044;-82
2024/03/01 12:27:27;;;;;;;0.20;0.10;;;;;;;;;;5033358;28;20496;-80
2024/03/01 12:30:08;;;;;;;0.20;0.10;;;;;;;;;;5032791;28;20049;-81
2024/03/01 12:32:43;;;;;;;0.20;0.08;;;;;;;;;;5049302;28;20076;-81
2024/03/01 12:35:18;;;;;;;0.20;0.00;;;;;;;;;;5029396;28;20060;-81
2024/03/01 12:38:08;;;;;;;0.20;0.10;;;;;;;;;;5049685;28;20489;-82
2024/03/01 12:40:37;;;;;;;0.20;0.03;;;;;;;;;;5020915;28;20076;-83
2024/03/01 12:43:18;;;;;;;0.20;0.00;;;;;;;;;;5034826;28;20041;-81
2024/03/01 12:45:44;;;;;;;0.20;0.10;;;;;;;;;;5029025;28;20132;-81
2024/03/01 12:48:18;;;;;;;0.20;0.03;;;;;;;;;;5050513;28;20065;-79
2024/03/01 12:50:58;;;;;;;0.20;0.10;;;;;;;;;;5032934;28;20131;-81
2024/03/01 12:53:30;;;;;;;0.20;0.00;;;;;;;;;;5030190;28;20048;-80
2024/03/01 12:56:04;;;;;;;0.20;0.20;;;;;;;;;;5032877;28;20037;-80
2024/03/01 12:58:33;;;;;;;0.20;0.00;;;;;;;;;;5050385;28;20037;-82
2024/03/01 13:01:09;;;;;;;0.20;0.08;;;;;;;;;;5035747;28;20150;-85
2024/03/01 13:03:55;;;;;;;0.20;0.00;;;;;;;;;;5028295;28;20033;-82
2024/03/01 13:06:21;;;;;;;0.20;0.00;;;;;;;;;;5037903;28;20100;-81
2024/03/01 13:09:14;;;;;;;0.20;0.00;;;;;;;;;;5035989;28;20150;-84
2024/03/01 13:11:44;;;;;;;0.20;0.00;;;;;;;;;;5042013;28;20053;-82
2024/03/01 13:14:29;;;;;;;0.68;0.50;;;;;;;;;;5036167;28;20045;-81
2024/03/01 13:16:59;;;;;;;0.20;0.00;;;;;;;;;;5030787;28;20052;-83
2024/03/01 13:19:30;;;;;;;0.65;0.65;;;;;;;;;;5054488;28;20496;-80
2024/03/01 13:22:03;;;;;;;0.20;0.00;;;;;;;;;;5040947;28;20040;-80
2024/03/01 13:24:43;;;;;;;1.27;0.30;;;;;;;;;;5048174;28;20067;-87
2024/03/01 13:27:27;;;;;;;0.20;0.00;;;;;;;;;;5030376;28;20415;-83
2024/03/01 13:29:56;;;;;;;0.20;0.00;;;;;;;;;;5047582;28;20053;-82
2024/03/01 13:32:27;;;;;;;0.20;0.00;;;;;;;;;;5034648;28;20116;-83
2024/03/01 13:34:57;;;;;;;0.20;0.10;;;;;;;;;;5031061;28;20102;-84
2024/03/01 13:37:27;;;;;;;0.20;0.00;;;;;;;;;;5042707;28;20033;-82
2024/03/01 13:40:14;;;;;;;0.20;0.10;;;;;;;;;;5031425;28;20120;-83
2024/03/01 13:42:44;;;;;;;0.20;0.00;;;;;;;;;;5041987;28;20048;-81
2024/03/01 13:45:13;;;;;;;0.20;0.10;;;;;;;;;;5044973;28;20132;-79
2024/03/01 13:47:40;;;;;;;1.00;0.20;;;;;;;;;;5039230;28;20034;-80
2024/03/01 13:50:07;;;;;;;0.20;0.10;;;;;;;;;;5058477;28;20045;-85
2024/03/01 13:52:43;;;;;;;0.20;0.00;;;;;;;;;;5045567;28;20040;-81
2024/03/01 13:55:10;;;;;;;0.20;0.00;;;;;;;;;;5045185;28;20068;-81
2024/03/01 13:57:41;;;;;;;0.20;0.00;;;;;;;;;;5048144;28;20033;-82
2024/03/01 14:00:24;;;;;;;0.40;0.40;;;;;;;;;;5045727;28;20053;-83
2024/03/01 14:02:50;;;;;;;0.30;0.20;;;;;;;;;;5035079;28;20186;-81
2024/03/01 14:05:17;;;;;;;0.20;0.00;;;;;;;;;;5030472;28;20036;-80
2024/03/01 14:07:47;;;;;;;0.57;0.57;;;;;;;;;;5032932;28;20048;-77
2024/03/01 14:10:14;;;;;;;0.20;0.00;;;;;;;;;;5044847;28;20738;-79
2024/03/01 14:12:40;;;;;;;0.20;0.03;;;;;;;;;;5040357;28;20072;-79
2024/03/01 14:15:13;;;;;;;0.20;0.00;;;;;;;;;;5039388;28;20098;-80
2024/03/01 14:17:39;;;;;;;;;;;;;;;;;;5047902;28;20045;-82
2024/03/01 14:20:11;;;;;;;0.20;0.00;;;;;;;;;;5032258;28;19931;-81
2024/03/01 14:22:45;;;;;;;0.20;0.10;;;;;;;;;;5040313;28;20051;-80
2024/03/01 14:25:12;;;;;;;0.20;0.00;;;;;;;;;;5039169;28;20048;-82
2024/03/01 14:27:44;;;;;;;0.20;0.10;;;;;;;;;;5039610;28;20080;-81
2024/03/01 14:30:16;;;;;;;0.20;0.10;;;;;;;;;;5043520;28;20509;-82
2024/03/01 14:32:42;;;;;;;;;;;;;;;;;;5059277;28;20040;-80
2024/03/01 14:35:24;;;;;;;0.20;0.10;;;;;;;;;;5050720;28;20174;-79
2024/03/01 14:37:52;;;;;;;0.63;0.20;;;;;;;;;;5032461;28;20064;-78
2024/03/01 14:40:18;;;;;;;0.20;0.00;;;;;;;;;;5042350;28;20037;-81
2024/03/01 14:42:57;;;;;;;0.20;0.10;;;;;;;;;;5031730;28;20042;-82
2024/03/01 14:45:23;;;;;;;0.40;0.20;;;;;;;;;;5046448;28;20439;-80
2024/03/01 14:48:00;;;;;;;0.20;0.08;;;;;;;;;;5054705;28;20040;-81
2024/03/01 14:50:29;;;;;;;0.20;0.00;;;;;;;;;;5046716;28;20037;-80
2024/03/01 14:53:01;;;;;;;0.20;0.10;;;;;;;;;;5051548;28;20033;-82
2024/03/01 14:55:28;;;;;;;0.20;0.00;;;;;;;;;;5039450;28;20047;-81
2024/03/01 14:57:54;;;;;;;0.20;0.13;;;;;;;;;;5035557;28;20044;-79